createdAt,value
2022-11-20T00:02:54.077Z,-7.28
2022-11-20T00:08:16.094Z,-6.99
2022-11-20T00:13:38.594Z,-7.18
2022-11-20T00:19:00.487Z,-7.09
2022-11-20T00:24:22.793Z,-7.18
2022-11-20T00:29:45.006Z,-6.93
2022-11-20T00:35:07.333Z,-6.92
2022-11-20T00:40:29.129Z,-6.93
2022-11-20T00:45:51.295Z,-6.88
2022-11-20T00:51:14.988Z,-6.83
2022-11-20T00:56:37.346Z,-7.04
2022-11-20T01:01:59.713Z,-6.97
2022-11-20T01:07:21.403Z,-6.98
2022-11-20T01:12:43.495Z,-7.10
2022-11-20T01:18:06.834Z,-7.11
2022-11-20T01:23:28.686Z,-7.21
2022-11-20T01:28:54.456Z,-7.07
2022-11-20T01:34:22.366Z,-6.99
2022-11-20T01:39:44.973Z,-7.15
2022-11-20T01:45:44.675Z,-7.00
2022-11-20T01:51:14.245Z,-7.09
2022-11-20T01:56:40.234Z,-7.16
2022-11-20T02:02:02.446Z,-7.15
2022-11-20T02:07:25.350Z,-7.12
2022-11-20T02:13:08.967Z,-7.04
2022-11-20T02:18:31.553Z,-6.97
2022-11-20T02:24:05.636Z,-6.91
2022-11-20T02:29:49.227Z,-6.88
2022-11-20T02:35:31.314Z,-6.94
2022-11-20T02:40:55.730Z,-6.90
2022-11-20T02:46:17.887Z,-7.05
2022-11-20T02:51:40.022Z,-6.87
2022-11-20T02:57:01.806Z,-6.89
2022-11-20T03:02:23.814Z,-6.74
2022-11-20T03:07:46.194Z,-6.77
2022-11-20T03:13:07.953Z,-6.82
2022-11-20T03:18:30.607Z,-6.81
2022-11-20T03:23:52.935Z,-6.81
2022-11-20T03:29:15.201Z,-6.81
2022-11-20T03:34:37.757Z,-6.84
2022-11-20T03:40:00.374Z,-6.87
2022-11-20T03:45:22.321Z,-6.90
2022-11-20T03:50:44.398Z,-6.96
2022-11-20T03:56:06.943Z,-6.96
2022-11-20T04:01:35.490Z,-6.86
2022-11-20T04:06:57.597Z,-6.79
2022-11-20T04:12:20.035Z,-6.75
2022-11-20T04:17:42.093Z,-6.73
2022-11-20T04:23:04.342Z,-6.82
2022-11-20T04:28:26.568Z,-6.82
2022-11-20T04:33:48.657Z,-6.77
2022-11-20T04:39:16.615Z,-6.74
2022-11-20T04:44:39.275Z,-6.65
2022-11-20T04:50:01.202Z,-6.70
2022-11-20T04:55:24.515Z,-6.68
2022-11-20T05:00:46.453Z,-6.64
2022-11-20T05:06:12.680Z,-6.61
2022-11-20T05:11:34.702Z,-6.70
2022-11-20T05:16:59.475Z,-6.72
2022-11-20T05:22:21.074Z,-6.67
2022-11-20T05:27:43.052Z,-6.74
2022-11-20T05:33:06.492Z,-6.82
2022-11-20T05:38:28.713Z,-6.70
2022-11-20T05:43:51.853Z,-6.57
2022-11-20T05:49:14.614Z,-6.70
2022-11-20T05:54:36.497Z,-6.62
2022-11-20T05:59:58.252Z,-6.69
2022-11-20T06:05:24.157Z,-6.52
2022-11-20T06:10:45.957Z,-6.53
2022-11-20T06:16:08.540Z,-6.60
2022-11-20T06:21:30.807Z,-6.48
2022-11-20T06:26:53.054Z,-6.41
2022-11-20T06:32:14.916Z,-6.42
2022-11-20T06:37:36.721Z,-6.40
2022-11-20T06:42:58.914Z,-6.35
2022-11-20T06:48:21.833Z,-6.37
2022-11-20T06:53:44.202Z,-6.53
2022-11-20T06:59:07.759Z,-6.40
2022-11-20T07:04:30.192Z,-6.25
2022-11-20T07:09:52.050Z,-6.37
2022-11-20T07:15:14.109Z,-6.21
2022-11-20T07:20:37.015Z,-6.18
2022-11-20T07:25:58.916Z,-6.30
2022-11-20T07:31:20.673Z,-6.00
2022-11-20T07:36:42.444Z,-5.91
2022-11-20T07:42:04.475Z,-5.92
2022-11-20T07:47:26.553Z,-5.93
2022-11-20T07:52:48.733Z,-5.84
2022-11-20T07:58:11.054Z,-5.99
2022-11-20T08:03:33.433Z,-5.88
2022-11-20T08:08:55.701Z,-6.00
2022-11-20T08:14:18.391Z,-5.99
2022-11-20T08:19:40.139Z,-6.00
2022-11-20T08:25:02.314Z,-5.80
2022-11-20T08:30:25.936Z,-5.93
2022-11-20T08:35:47.999Z,-5.80
2022-11-20T08:41:25.304Z,-5.97
2022-11-20T08:46:48.640Z,-5.71
2022-11-20T08:52:10.574Z,-5.78
2022-11-20T08:57:42.442Z,-5.85
2022-11-20T09:03:09.568Z,-5.83
2022-11-20T09:08:35.875Z,-5.88
2022-11-20T09:13:59.903Z,-5.85
2022-11-20T09:25:04.442Z,-5.70
2022-11-20T09:30:27.435Z,-5.60
2022-11-20T09:35:49.281Z,-5.51
2022-11-20T09:41:38.933Z,-5.45
2022-11-20T09:47:22.975Z,-5.31
2022-11-20T09:53:12.876Z,-5.17
2022-11-20T09:58:37.213Z,-5.14
2022-11-20T10:04:15.294Z,-5.17
2022-11-20T10:09:40.661Z,-5.11
2022-11-20T10:15:19.795Z,-5.01
2022-11-20T10:27:11.207Z,-4.73
2022-11-20T10:32:48.642Z,-4.77
2022-11-20T10:38:50.082Z,-4.97
2022-11-20T10:44:51.253Z,-5.24
2022-11-20T10:50:39.375Z,-5.31
2022-11-20T10:57:03.977Z,-5.32
2022-11-20T11:10:40.904Z,-5.54
2022-11-20T11:16:08.275Z,-5.81
2022-11-20T11:21:33.782Z,-5.85
2022-11-20T11:27:17.243Z,-5.84
2022-11-20T11:32:43.702Z,-5.87
2022-11-20T11:38:18.221Z,-5.71
2022-11-20T11:43:58.915Z,-5.74
2022-11-20T11:49:22.010Z,-5.74
2022-11-20T11:55:01.253Z,-5.77
2022-11-20T12:00:25.015Z,-5.82
2022-11-20T12:05:52.602Z,-5.88
2022-11-20T12:11:41.254Z,-5.87
2022-11-20T12:17:06.744Z,-5.88
2022-11-20T12:23:20.115Z,-5.93
2022-11-20T12:29:02.906Z,-5.92
2022-11-20T12:35:00.603Z,-5.97
2022-11-20T12:40:50.967Z,-5.92
2022-11-20T12:46:40.193Z,-5.89
2022-11-20T12:52:18.554Z,-5.79
2022-11-20T12:58:03.436Z,-5.93
2022-11-20T13:03:49.459Z,-5.85
2022-11-20T13:09:16.136Z,-6.04
2022-11-20T13:14:55.814Z,-5.90
2022-11-20T13:20:20.676Z,-6.11
2022-11-20T13:25:43.397Z,-6.05
2022-11-20T13:31:34.146Z,-6.16
2022-11-20T13:36:58.742Z,-6.14
2022-11-20T13:42:30.475Z,-6.13
2022-11-20T13:47:56.165Z,-6.12
2022-11-20T13:53:39.854Z,-5.98
2022-11-20T14:00:22.868Z,-5.95
2022-11-20T14:06:09.022Z,-6.01
2022-11-20T14:11:53.359Z,-6.09
2022-11-20T14:17:27.826Z,-5.94
2022-11-20T14:22:54.773Z,-6.14
2022-11-20T14:28:32.541Z,-6.12
2022-11-20T14:33:58.288Z,-6.14
2022-11-20T14:39:37.074Z,-6.01
2022-11-20T14:45:04.676Z,-6.08
2022-11-20T14:50:35.721Z,-6.28
2022-11-20T14:56:03.002Z,-6.16
2022-11-20T15:01:40.185Z,-6.22
2022-11-20T15:07:05.557Z,-6.18
2022-11-20T15:12:31.795Z,-6.08
2022-11-20T15:17:56.997Z,-6.19
2022-11-20T15:23:24.156Z,-6.04
2022-11-20T15:28:52.882Z,-6.12
2022-11-20T15:34:28.664Z,-6.03
2022-11-20T15:39:57.022Z,-6.05
2022-11-20T15:45:21.160Z,-6.13
2022-11-20T15:50:55.454Z,-6.00
2022-11-20T15:56:23.625Z,-5.99
2022-11-20T16:01:52.098Z,-6.13
2022-11-20T16:07:16.561Z,-6.11
2022-11-20T16:12:57.415Z,-6.18
2022-11-20T16:18:21.982Z,-6.20
2022-11-20T16:23:51.237Z,-6.12
2022-11-20T16:29:17.856Z,-6.13
2022-11-20T16:34:46.503Z,-6.16
2022-11-20T16:40:10.434Z,-6.03
2022-11-20T16:45:34.043Z,-6.08
2022-11-20T16:50:56.756Z,-6.14
2022-11-20T16:56:21.615Z,-6.05
2022-11-20T17:01:44.853Z,-6.26
2022-11-20T17:07:16.707Z,-6.29
2022-11-20T17:12:44.615Z,-6.25
2022-11-20T17:18:12.317Z,-6.20
2022-11-20T17:23:40.594Z,-6.16
2022-11-20T17:29:07.296Z,-6.26
2022-11-20T17:34:32.069Z,-6.43
2022-11-20T17:39:54.462Z,-6.48
2022-11-20T17:45:32.756Z,-6.53
2022-11-20T17:51:01.475Z,-6.45
2022-11-20T17:56:43.339Z,-6.62
2022-11-20T18:02:06.466Z,-6.68
2022-11-20T18:07:29.003Z,-6.55
2022-11-20T18:12:51.714Z,-6.64
2022-11-20T18:18:16.998Z,-6.59
2022-11-20T18:23:44.939Z,-6.52
2022-11-20T18:29:10.522Z,-6.43
2022-11-20T18:34:36.106Z,-6.51
2022-11-20T18:40:03.475Z,-6.43
2022-11-20T18:45:32.435Z,-6.40
2022-11-20T18:50:57.977Z,-6.37
2022-11-20T18:56:29.374Z,-6.39
2022-11-20T19:01:57.894Z,-6.46
2022-11-20T19:07:24.491Z,-6.42
2022-11-20T19:12:51.255Z,-6.43
2022-11-20T19:18:19.653Z,-6.40
2022-11-20T19:23:43.933Z,-6.45
2022-11-20T19:29:12.393Z,-6.55
2022-11-20T19:34:37.635Z,-6.46
2022-11-20T19:40:05.234Z,-6.55
2022-11-20T19:45:29.715Z,-6.58
2022-11-20T19:50:54.253Z,-6.35
2022-11-20T19:56:30.198Z,-6.46
2022-11-20T20:02:09.090Z,-6.33
2022-11-20T20:07:44.128Z,-6.60
2022-11-20T20:13:15.915Z,-6.68
2022-11-20T20:18:41.853Z,-6.50
2022-11-20T20:24:16.962Z,-6.43
2022-11-20T20:29:55.382Z,-6.44
2022-11-20T20:41:06.917Z,-6.36
2022-11-20T20:52:19.208Z,-6.50
2022-11-20T21:03:33.004Z,-6.52
2022-11-20T21:08:57.833Z,-6.66
2022-11-20T21:14:20.151Z,-6.62
2022-11-20T21:19:42.407Z,-6.61
2022-11-20T21:25:04.354Z,-6.40
2022-11-20T21:30:26.556Z,-6.63
2022-11-20T21:35:49.874Z,-6.51
2022-11-20T21:41:13.489Z,-6.40
2022-11-20T21:46:39.054Z,-6.62
2022-11-20T21:52:01.455Z,-6.61
2022-11-20T21:57:23.714Z,-6.41
2022-11-20T22:02:45.633Z,-6.23
2022-11-20T22:08:07.974Z,-6.40
2022-11-20T22:13:49.455Z,-6.21
2022-11-20T22:19:11.295Z,-6.32
2022-11-20T22:24:33.654Z,-6.25
2022-11-20T22:29:55.954Z,-6.28
2022-11-20T22:35:17.736Z,-6.17
2022-11-20T22:40:40.559Z,-6.19
2022-11-20T22:46:04.076Z,-6.41
2022-11-20T22:51:34.701Z,-6.35
2022-11-20T22:56:56.596Z,-6.51
2022-11-20T23:02:18.719Z,-6.41
2022-11-20T23:07:41.197Z,-6.23
2022-11-20T23:13:03.856Z,-6.27
2022-11-20T23:18:25.973Z,-6.28
2022-11-20T23:23:53.275Z,-6.26
2022-11-20T23:29:15.082Z,-6.41
2022-11-20T23:34:37.115Z,-6.32
2022-11-20T23:39:59.457Z,-6.35
2022-11-20T23:45:21.396Z,-6.44
2022-11-20T23:50:44.634Z,-6.23
2022-11-20T23:56:07.365Z,-6.25
